sensor_id;sensor_type;location;lat;lon;timestamp;pressure;altitude;pressure_sealevel;temperature;humidity
48874;BME280;66155;46.204;5.220;2023-05-29T00:03:41;98355.53;;;22.40;48.28
48874;BME280;66155;46.204;5.220;2023-05-29T00:08:42;98356.84;;;22.34;48.22
48874;BME280;66155;46.204;5.220;2023-05-29T00:13:43;98353.97;;;22.27;48.43
48874;BME280;66155;46.204;5.220;2023-05-29T00:18:43;98350.19;;;22.16;49.03
48874;BME280;66155;46.204;5.220;2023-05-29T00:23:46;98353.81;;;22.11;48.81
48874;BME280;66155;46.204;5.220;2023-05-29T00:28:47;98358.91;;;22.04;49.27
48874;BME280;66155;46.204;5.220;2023-05-29T00:33:48;98358.56;;;21.93;49.33
48874;BME280;66155;46.204;5.220;2023-05-29T00:38:48;98360.88;;;21.95;49.61
48874;BME280;66155;46.204;5.220;2023-05-29T00:43:48;98363.19;;;21.84;49.79
48874;BME280;66155;46.204;5.220;2023-05-29T00:48:49;98363.69;;;21.65;50.05
48874;BME280;66155;46.204;5.220;2023-05-29T00:53:50;98369.66;;;21.62;50.25
48874;BME280;66155;46.204;5.220;2023-05-29T00:58:51;98375.31;;;21.60;50.38
48874;BME280;66155;46.204;5.220;2023-05-29T01:03:55;98372.53;;;21.57;51.06
48874;BME280;66155;46.204;5.220;2023-05-29T01:08:55;98376.16;;;21.52;50.61
48874;BME280;66155;46.204;5.220;2023-05-29T01:13:57;98376.34;;;21.47;50.89
48874;BME280;66155;46.204;5.220;2023-05-29T01:24:42;98384.78;;;21.40;51.54
48874;BME280;66155;46.204;5.220;2023-05-29T01:29:46;98373.63;;;21.35;51.34
48874;BME280;66155;46.204;5.220;2023-05-29T01:34:48;98365.28;;;21.24;51.91
48874;BME280;66155;46.204;5.220;2023-05-29T01:39:48;98372.22;;;21.16;52.00
48874;BME280;66155;46.204;5.220;2023-05-29T01:44:49;98370.53;;;21.12;52.19
48874;BME280;66155;46.204;5.220;2023-05-29T01:49:51;98363.56;;;21.07;52.21
48874;BME280;66155;46.204;5.220;2023-05-29T01:54:51;98364.72;;;20.97;52.60
48874;BME280;66155;46.204;5.220;2023-05-29T01:59:52;98362.06;;;20.97;52.54
48874;BME280;66155;46.204;5.220;2023-05-29T02:04:53;98359.47;;;20.88;53.07
48874;BME280;66155;46.204;5.220;2023-05-29T02:09:53;98361.38;;;20.88;53.11
48874;BME280;66155;46.204;5.220;2023-05-29T02:14:54;98367.94;;;20.82;53.58
48874;BME280;66155;46.204;5.220;2023-05-29T02:19:54;98356.94;;;20.71;53.92
48874;BME280;66155;46.204;5.220;2023-05-29T02:24:55;98354.84;;;20.56;54.48
48874;BME280;66155;46.204;5.220;2023-05-29T02:29:55;98352.25;;;20.47;54.48
48874;BME280;66155;46.204;5.220;2023-05-29T02:34:57;98363.00;;;20.42;54.76
48874;BME280;66155;46.204;5.220;2023-05-29T02:39:57;98358.47;;;20.42;54.95
48874;BME280;66155;46.204;5.220;2023-05-29T02:44:58;98352.88;;;20.44;54.96
48874;BME280;66155;46.204;5.220;2023-05-29T02:50:02;98344.63;;;20.45;54.98
48874;BME280;66155;46.204;5.220;2023-05-29T02:55:03;98346.53;;;20.36;55.35
48874;BME280;66155;46.204;5.220;2023-05-29T03:00:07;98339.25;;;20.33;55.56
48874;BME280;66155;46.204;5.220;2023-05-29T03:05:08;98340.31;;;20.32;55.41
48874;BME280;66155;46.204;5.220;2023-05-29T03:10:09;98334.44;;;20.26;55.81
48874;BME280;66155;46.204;5.220;2023-05-29T03:15:10;98330.88;;;20.22;55.80
48874;BME280;66155;46.204;5.220;2023-05-29T03:20:11;98337.91;;;20.18;56.30
48874;BME280;66155;46.204;5.220;2023-05-29T03:25:11;98355.03;;;20.12;56.41
48874;BME280;66155;46.204;5.220;2023-05-29T03:30:12;98352.00;;;19.92;56.95
48874;BME280;66155;46.204;5.220;2023-05-29T03:35:12;98355.31;;;19.72;57.53
48874;BME280;66155;46.204;5.220;2023-05-29T03:40:13;98354.22;;;19.64;57.24
48874;BME280;66155;46.204;5.220;2023-05-29T03:45:13;98355.03;;;19.38;57.51
48874;BME280;66155;46.204;5.220;2023-05-29T03:50:14;98353.94;;;19.40;57.27
48874;BME280;66155;46.204;5.220;2023-05-29T03:55:16;98363.91;;;19.25;57.97
48874;BME280;66155;46.204;5.220;2023-05-29T04:00:16;98362.97;;;19.21;57.90
48874;BME280;66155;46.204;5.220;2023-05-29T04:05:18;98372.63;;;19.17;58.03
48874;BME280;66155;46.204;5.220;2023-05-29T04:10:18;98379.75;;;18.90;59.07
48874;BME280;66155;46.204;5.220;2023-05-29T04:15:19;98393.88;;;18.54;59.59
48874;BME280;66155;46.204;5.220;2023-05-29T04:20:20;98399.09;;;18.37;60.07
48874;BME280;66155;46.204;5.220;2023-05-29T04:25:21;98395.94;;;18.26;60.14
48874;BME280;66155;46.204;5.220;2023-05-29T04:30:21;98404.50;;;18.23;60.16
48874;BME280;66155;46.204;5.220;2023-05-29T04:35:21;98408.56;;;18.38;59.23
48874;BME280;66155;46.204;5.220;2023-05-29T04:40:22;98409.22;;;18.43;59.17
48874;BME280;66155;46.204;5.220;2023-05-29T04:45:22;98405.03;;;18.42;58.75
48874;BME280;66155;46.204;5.220;2023-05-29T04:50:23;98414.22;;;18.54;58.58
48874;BME280;66155;46.204;5.220;2023-05-29T04:55:24;98412.81;;;18.56;58.48
48874;BME280;66155;46.204;5.220;2023-05-29T05:00:24;98421.47;;;18.39;58.94
48874;BME280;66155;46.204;5.220;2023-05-29T05:05:25;98421.75;;;18.38;58.39
48874;BME280;66155;46.204;5.220;2023-05-29T05:10:25;98435.84;;;18.24;58.48
48874;BME280;66155;46.204;5.220;2023-05-29T05:15:26;98447.88;;;18.17;58.71
48874;BME280;66155;46.204;5.220;2023-05-29T05:20:26;98446.69;;;18.23;58.36
48874;BME280;66155;46.204;5.220;2023-05-29T05:25:27;98449.09;;;18.11;58.04
48874;BME280;66155;46.204;5.220;2023-05-29T05:30:27;98442.25;;;18.10;57.93
48874;BME280;66155;46.204;5.220;2023-05-29T05:35:27;98445.13;;;18.22;57.64
48874;BME280;66155;46.204;5.220;2023-05-29T05:40:28;98452.34;;;18.39;56.83
48874;BME280;66155;46.204;5.220;2023-05-29T05:45:28;98456.53;;;18.40;56.42
48874;BME280;66155;46.204;5.220;2023-05-29T05:50:29;98451.97;;;18.63;56.04
48874;BME280;66155;46.204;5.220;2023-05-29T05:55:29;98459.44;;;18.70;55.71
48874;BME280;66155;46.204;5.220;2023-05-29T06:00:30;98452.31;;;18.70;55.89
48874;BME280;66155;46.204;5.220;2023-05-29T06:05:30;98453.03;;;18.93;55.27
48874;BME280;66155;46.204;5.220;2023-05-29T06:10:30;98454.59;;;19.03;55.36
48874;BME280;66155;46.204;5.220;2023-05-29T06:15:31;98453.69;;;19.16;55.05
48874;BME280;66155;46.204;5.220;2023-05-29T06:20:31;98449.84;;;19.31;54.83
48874;BME280;66155;46.204;5.220;2023-05-29T06:25:32;98459.47;;;19.45;54.67
48874;BME280;66155;46.204;5.220;2023-05-29T06:30:33;98467.25;;;19.59;54.42
48874;BME280;66155;46.204;5.220;2023-05-29T06:35:33;98460.56;;;19.61;54.89
48874;BME280;66155;46.204;5.220;2023-05-29T06:40:34;98465.22;;;19.64;54.72
48874;BME280;66155;46.204;5.220;2023-05-29T06:45:35;98471.59;;;19.54;54.91
48874;BME280;66155;46.204;5.220;2023-05-29T06:50:35;98458.84;;;19.48;55.11
48874;BME280;66155;46.204;5.220;2023-05-29T06:55:35;98460.88;;;19.42;55.04
48874;BME280;66155;46.204;5.220;2023-05-29T07:00:36;98461.16;;;19.32;54.99
48874;BME280;66155;46.204;5.220;2023-05-29T07:05:36;98473.16;;;19.29;55.50
48874;BME280;66155;46.204;5.220;2023-05-29T07:10:37;98480.44;;;19.32;55.84
48874;BME280;66155;46.204;5.220;2023-05-29T07:15:37;98483.19;;;19.18;56.32
48874;BME280;66155;46.204;5.220;2023-05-29T07:20:38;98481.19;;;19.15;56.51
48874;BME280;66155;46.204;5.220;2023-05-29T07:25:39;98478.72;;;19.19;57.01
48874;BME280;66155;46.204;5.220;2023-05-29T07:30:39;98474.94;;;19.11;57.18
48874;BME280;66155;46.204;5.220;2023-05-29T07:35:39;98475.28;;;19.27;56.58
48874;BME280;66155;46.204;5.220;2023-05-29T07:40:42;98466.00;;;19.30;56.87
48874;BME280;66155;46.204;5.220;2023-05-29T07:45:42;98467.06;;;19.37;56.86
48874;BME280;66155;46.204;5.220;2023-05-29T07:50:42;98478.41;;;19.38;57.14
48874;BME280;66155;46.204;5.220;2023-05-29T07:55:43;98477.50;;;19.51;56.69
48874;BME280;66155;46.204;5.220;2023-05-29T08:00:44;98474.41;;;19.49;56.51
48874;BME280;66155;46.204;5.220;2023-05-29T08:05:44;98475.78;;;19.64;56.19
48874;BME280;66155;46.204;5.220;2023-05-29T08:10:45;98471.75;;;19.58;56.42
48874;BME280;66155;46.204;5.220;2023-05-29T08:15:45;98478.91;;;19.66;56.13
48874;BME280;66155;46.204;5.220;2023-05-29T08:20:46;98474.91;;;19.86;55.61
48874;BME280;66155;46.204;5.220;2023-05-29T08:25:50;98483.28;;;19.88;55.85
48874;BME280;66155;46.204;5.220;2023-05-29T08:30:51;98482.97;;;19.90;55.86
48874;BME280;66155;46.204;5.220;2023-05-29T08:35:51;98491.97;;;19.98;55.61
48874;BME280;66155;46.204;5.220;2023-05-29T08:40:52;98488.84;;;20.22;55.27
48874;BME280;66155;46.204;5.220;2023-05-29T08:45:54;98484.91;;;20.28;54.95
48874;BME280;66155;46.204;5.220;2023-05-29T08:50:57;98479.13;;;20.43;54.65
48874;BME280;66155;46.204;5.220;2023-05-29T08:55:59;98483.75;;;20.55;54.36
48874;BME280;66155;46.204;5.220;2023-05-29T09:01:01;98480.94;;;20.51;54.30
48874;BME280;66155;46.204;5.220;2023-05-29T09:06:02;98479.25;;;20.56;54.39
48874;BME280;66155;46.204;5.220;2023-05-29T09:11:03;98479.06;;;20.61;54.10
48874;BME280;66155;46.204;5.220;2023-05-29T09:16:04;98481.22;;;20.67;53.77
48874;BME280;66155;46.204;5.220;2023-05-29T09:21:08;98486.13;;;20.86;53.46
48874;BME280;66155;46.204;5.220;2023-05-29T09:26:13;98496.09;;;20.89;53.30
48874;BME280;66155;46.204;5.220;2023-05-29T09:31:14;98500.09;;;20.96;53.20
48874;BME280;66155;46.204;5.220;2023-05-29T09:36:23;98499.44;;;21.07;52.71
48874;BME280;66155;46.204;5.220;2023-05-29T09:41:23;98492.28;;;21.29;52.52
48874;BME280;66155;46.204;5.220;2023-05-29T09:46:24;98486.75;;;21.43;52.28
48874;BME280;66155;46.204;5.220;2023-05-29T09:51:24;98493.81;;;21.60;51.97
48874;BME280;66155;46.204;5.220;2023-05-29T09:56:26;98497.25;;;21.60;52.17
48874;BME280;66155;46.204;5.220;2023-05-29T10:01:28;98498.06;;;21.73;52.03
48874;BME280;66155;46.204;5.220;2023-05-29T10:06:29;98488.13;;;21.70;51.41
48874;BME280;66155;46.204;5.220;2023-05-29T10:11:30;98493.06;;;21.93;51.31
48874;BME280;66155;46.204;5.220;2023-05-29T10:16:33;98492.72;;;22.15;50.74
48874;BME280;66155;46.204;5.220;2023-05-29T10:21:39;98487.69;;;22.35;50.19
48874;BME280;66155;46.204;5.220;2023-05-29T10:26:43;98479.59;;;22.44;49.69
48874;BME280;66155;46.204;5.220;2023-05-29T10:37:06;98472.56;;;22.72;47.82
48874;BME280;66155;46.204;5.220;2023-05-29T10:42:44;98473.34;;;22.85;47.63
48874;BME280;66155;46.204;5.220;2023-05-29T10:47:45;98471.34;;;22.94;47.98
48874;BME280;66155;46.204;5.220;2023-05-29T10:52:46;98470.69;;;23.10;47.77
48874;BME280;66155;46.204;5.220;2023-05-29T10:57:48;98465.91;;;23.28;47.69
48874;BME280;66155;46.204;5.220;2023-05-29T11:02:51;98463.44;;;23.35;47.45
48874;BME280;66155;46.204;5.220;2023-05-29T11:07:54;98467.41;;;23.41;47.30
48874;BME280;66155;46.204;5.220;2023-05-29T11:12:58;98461.03;;;23.58;47.12
48874;BME280;66155;46.204;5.220;2023-05-29T11:18:07;98455.00;;;23.73;45.70
48874;BME280;66155;46.204;5.220;2023-05-29T11:23:07;98454.84;;;23.82;46.12
48874;BME280;66155;46.204;5.220;2023-05-29T11:28:08;98449.13;;;23.96;45.50
48874;BME280;66155;46.204;5.220;2023-05-29T11:33:26;98438.09;;;24.10;45.19
48874;BME280;66155;46.204;5.220;2023-05-29T11:38:30;98438.25;;;24.17;45.32
48874;BME280;66155;46.204;5.220;2023-05-29T11:43:31;98435.94;;;24.32;45.51
48874;BME280;66155;46.204;5.220;2023-05-29T11:48:32;98428.38;;;24.49;45.26
48874;BME280;66155;46.204;5.220;2023-05-29T11:53:33;98415.84;;;24.66;44.41
48874;BME280;66155;46.204;5.220;2023-05-29T11:58:33;98410.50;;;24.82;44.49
48874;BME280;66155;46.204;5.220;2023-05-29T12:03:40;98405.53;;;25.00;43.47
48874;BME280;66155;46.204;5.220;2023-05-29T12:08:41;98405.41;;;25.12;43.25
48874;BME280;66155;46.204;5.220;2023-05-29T12:13:41;98403.47;;;25.29;43.09
48874;BME280;66155;46.204;5.220;2023-05-29T12:18:42;98399.53;;;25.42;42.83
48874;BME280;66155;46.204;5.220;2023-05-29T12:23:42;98397.84;;;25.53;41.88
48874;BME280;66155;46.204;5.220;2023-05-29T12:28:44;98388.56;;;25.67;41.25
48874;BME280;66155;46.204;5.220;2023-05-29T12:33:45;98391.81;;;25.79;41.18
48874;BME280;66155;46.204;5.220;2023-05-29T12:38:47;98377.78;;;25.83;40.20
48874;BME280;66155;46.204;5.220;2023-05-29T12:43:48;98367.81;;;26.03;39.75
48874;BME280;66155;46.204;5.220;2023-05-29T12:48:48;98370.31;;;26.15;39.03
48874;BME280;66155;46.204;5.220;2023-05-29T12:53:50;98375.72;;;26.45;38.81
48874;BME280;66155;46.204;5.220;2023-05-29T12:58:50;98367.25;;;26.66;38.07
48874;BME280;66155;46.204;5.220;2023-05-29T13:03:52;98368.41;;;26.96;38.15
48874;BME280;66155;46.204;5.220;2023-05-29T13:08:52;98368.28;;;27.19;37.25
48874;BME280;66155;46.204;5.220;2023-05-29T13:13:53;98369.97;;;27.30;36.93
48874;BME280;66155;46.204;5.220;2023-05-29T13:18:53;98351.38;;;27.41;36.51
48874;BME280;66155;46.204;5.220;2023-05-29T13:23:54;98340.06;;;27.59;36.29
48874;BME280;66155;46.204;5.220;2023-05-29T13:28:54;98337.97;;;27.82;36.01
48874;BME280;66155;46.204;5.220;2023-05-29T13:33:54;98326.84;;;27.80;35.13
48874;BME280;66155;46.204;5.220;2023-05-29T13:38:55;98317.38;;;27.90;34.94
48874;BME280;66155;46.204;5.220;2023-05-29T13:43:55;98309.97;;;28.21;34.11
48874;BME280;66155;46.204;5.220;2023-05-29T13:48:56;98313.19;;;28.48;33.63
48874;BME280;66155;46.204;5.220;2023-05-29T13:53:56;98311.25;;;28.45;33.57
48874;BME280;66155;46.204;5.220;2023-05-29T13:58:57;98293.41;;;28.78;33.08
48874;BME280;66155;46.204;5.220;2023-05-29T14:04:00;98293.00;;;28.72;32.68
48874;BME280;66155;46.204;5.220;2023-05-29T14:09:01;98290.41;;;28.94;31.98
48874;BME280;66155;46.204;5.220;2023-05-29T14:14:01;98274.75;;;29.07;30.54
48874;BME280;66155;46.204;5.220;2023-05-29T14:19:01;98277.78;;;28.98;30.69
48874;BME280;66155;46.204;5.220;2023-05-29T14:24:02;98274.00;;;29.24;30.28
48874;BME280;66155;46.204;5.220;2023-05-29T14:29:03;98261.78;;;29.41;29.32
48874;BME280;66155;46.204;5.220;2023-05-29T14:34:04;98259.84;;;29.42;29.40
48874;BME280;66155;46.204;5.220;2023-05-29T14:39:05;98250.66;;;29.46;29.47
48874;BME280;66155;46.204;5.220;2023-05-29T14:44:06;98241.84;;;29.67;28.46
48874;BME280;66155;46.204;5.220;2023-05-29T14:49:09;98246.81;;;29.54;28.93
48874;BME280;66155;46.204;5.220;2023-05-29T14:54:10;98238.34;;;29.74;28.71
48874;BME280;66155;46.204;5.220;2023-05-29T14:59:11;98234.16;;;29.91;28.13
48874;BME280;66155;46.204;5.220;2023-05-29T15:04:12;98235.28;;;29.97;28.32
48874;BME280;66155;46.204;5.220;2023-05-29T15:09:12;98238.38;;;29.95;27.87
48874;BME280;66155;46.204;5.220;2023-05-29T15:14:13;98236.47;;;29.78;27.46
48874;BME280;66155;46.204;5.220;2023-05-29T15:19:15;98236.06;;;29.98;27.23
48874;BME280;66155;46.204;5.220;2023-05-29T15:24:16;98232.22;;;29.95;26.97
48874;BME280;66155;46.204;5.220;2023-05-29T15:29:16;98223.75;;;30.00;26.44
48874;BME280;66155;46.204;5.220;2023-05-29T15:34:17;98222.63;;;29.98;26.43
48874;BME280;66155;46.204;5.220;2023-05-29T15:39:17;98226.06;;;30.05;26.44
48874;BME280;66155;46.204;5.220;2023-05-29T15:44:17;98239.88;;;30.07;26.41
48874;BME280;66155;46.204;5.220;2023-05-29T15:49:18;98234.47;;;30.11;26.44
48874;BME280;66155;46.204;5.220;2023-05-29T15:54:18;98233.72;;;30.14;26.15
48874;BME280;66155;46.204;5.220;2023-05-29T15:59:19;98232.13;;;30.31;26.19
48874;BME280;66155;46.204;5.220;2023-05-29T16:04:19;98226.31;;;30.43;26.34
48874;BME280;66155;46.204;5.220;2023-05-29T16:09:19;98229.69;;;30.65;25.11
48874;BME280;66155;46.204;5.220;2023-05-29T16:14:20;98233.28;;;34.72;21.04
48874;BME280;66155;46.204;5.220;2023-05-29T16:19:21;98204.09;;;35.91;19.40
48874;BME280;66155;46.204;5.220;2023-05-29T16:24:21;98204.22;;;36.43;19.42
48874;BME280;66155;46.204;5.220;2023-05-29T16:29:22;98204.78;;;36.89;18.48
48874;BME280;66155;46.204;5.220;2023-05-29T16:34:23;98213.56;;;37.06;18.45
48874;BME280;66155;46.204;5.220;2023-05-29T16:39:24;98224.88;;;37.52;17.78
48874;BME280;66155;46.204;5.220;2023-05-29T16:44:27;98226.84;;;37.52;17.50
48874;BME280;66155;46.204;5.220;2023-05-29T16:49:27;98217.75;;;37.33;17.92
48874;BME280;66155;46.204;5.220;2023-05-29T16:54:28;98232.91;;;37.21;17.77
48874;BME280;66155;46.204;5.220;2023-05-29T16:59:30;98229.00;;;36.96;17.78
48874;BME280;66155;46.204;5.220;2023-05-29T17:04:31;98232.59;;;36.93;18.18
48874;BME280;66155;46.204;5.220;2023-05-29T17:09:35;98232.91;;;37.69;17.86
48874;BME280;66155;46.204;5.220;2023-05-29T17:14:36;98233.84;;;37.27;17.92
48874;BME280;66155;46.204;5.220;2023-05-29T17:19:36;98218.00;;;37.13;18.06
48874;BME280;66155;46.204;5.220;2023-05-29T17:24:37;98238.22;;;34.94;19.83
48874;BME280;66155;46.204;5.220;2023-05-29T17:29:37;98236.69;;;33.29;21.31
48874;BME280;66155;46.204;5.220;2023-05-29T17:34:38;98241.47;;;32.29;22.39
48874;BME280;66155;46.204;5.220;2023-05-29T17:39:39;98255.03;;;31.80;23.06
48874;BME280;66155;46.204;5.220;2023-05-29T17:44:39;98253.38;;;31.52;23.58
48874;BME280;66155;46.204;5.220;2023-05-29T17:49:39;98251.41;;;31.59;23.50
48874;BME280;66155;46.204;5.220;2023-05-29T17:54:40;98263.94;;;31.77;23.35
48874;BME280;66155;46.204;5.220;2023-05-29T17:59:40;98274.50;;;31.98;23.15
48874;BME280;66155;46.204;5.220;2023-05-29T18:04:41;98284.34;;;32.19;23.07
48874;BME280;66155;46.204;5.220;2023-05-29T18:09:41;98283.81;;;31.90;23.32
48874;BME280;66155;46.204;5.220;2023-05-29T18:14:42;98278.44;;;31.90;23.26
48874;BME280;66155;46.204;5.220;2023-05-29T18:19:42;98281.84;;;31.53;23.86
48874;BME280;66155;46.204;5.220;2023-05-29T18:24:43;98292.97;;;30.95;24.49
48874;BME280;66155;46.204;5.220;2023-05-29T18:29:46;98300.50;;;30.12;25.64
48874;BME280;66155;46.204;5.220;2023-05-29T18:34:48;98289.38;;;29.56;26.04
48874;BME280;66155;46.204;5.220;2023-05-29T18:39:48;98303.09;;;29.11;26.85
48874;BME280;66155;46.204;5.220;2023-05-29T18:44:49;98304.56;;;28.80;27.27
48874;BME280;66155;46.204;5.220;2023-05-29T18:49:49;98312.41;;;28.51;27.63
48874;BME280;66155;46.204;5.220;2023-05-29T18:54:50;98312.97;;;28.16;28.77
48874;BME280;66155;46.204;5.220;2023-05-29T18:59:50;98323.91;;;27.93;28.85
48874;BME280;66155;46.204;5.220;2023-05-29T19:04:53;98314.50;;;27.65;29.54
48874;BME280;66155;46.204;5.220;2023-05-29T19:09:54;98316.19;;;27.39;29.88
48874;BME280;66155;46.204;5.220;2023-05-29T19:14:54;98332.47;;;26.93;30.67
48874;BME280;66155;46.204;5.220;2023-05-29T19:19:55;98346.47;;;26.52;30.90
48874;BME280;66155;46.204;5.220;2023-05-29T19:24:55;98349.44;;;26.21;31.49
48874;BME280;66155;46.204;5.220;2023-05-29T19:29:56;98353.66;;;25.98;31.84
48874;BME280;66155;46.204;5.220;2023-05-29T19:34:56;98371.25;;;25.80;32.19
48874;BME280;66155;46.204;5.220;2023-05-29T19:39:57;98372.19;;;25.68;32.44
48874;BME280;66155;46.204;5.220;2023-05-29T19:44:57;98368.56;;;25.57;32.36
48874;BME280;66155;46.204;5.220;2023-05-29T19:49:58;98385.09;;;25.43;32.76
48874;BME280;66155;46.204;5.220;2023-05-29T19:55:03;98382.06;;;25.25;33.23
48874;BME280;66155;46.204;5.220;2023-05-29T20:00:05;98382.69;;;25.18;33.62
48874;BME280;66155;46.204;5.220;2023-05-29T20:05:06;98390.13;;;25.09;33.98
48874;BME280;66155;46.204;5.220;2023-05-29T20:10:08;98393.88;;;25.08;33.66
48874;BME280;66155;46.204;5.220;2023-05-29T20:15:09;98404.47;;;25.04;34.32
48874;BME280;66155;46.204;5.220;2023-05-29T20:20:10;98415.25;;;24.92;34.48
48874;BME280;66155;46.204;5.220;2023-05-29T20:25:11;98419.88;;;24.76;35.01
48874;BME280;66155;46.204;5.220;2023-05-29T20:30:11;98433.97;;;24.60;35.22
48874;BME280;66155;46.204;5.220;2023-05-29T20:35:12;98430.28;;;24.49;35.32
48874;BME280;66155;46.204;5.220;2023-05-29T20:40:16;98433.69;;;24.49;35.40
48874;BME280;66155;46.204;5.220;2023-05-29T20:45:16;98445.56;;;24.52;35.46
48874;BME280;66155;46.204;5.220;2023-05-29T20:50:18;98446.94;;;24.46;35.56
48874;BME280;66155;46.204;5.220;2023-05-29T20:55:21;98474.78;;;24.33;36.14
48874;BME280;66155;46.204;5.220;2023-05-29T21:00:21;98484.19;;;24.14;37.02
48874;BME280;66155;46.204;5.220;2023-05-29T21:05:22;98482.97;;;23.96;37.77
48874;BME280;66155;46.204;5.220;2023-05-29T21:10:23;98497.19;;;23.75;39.20
48874;BME280;66155;46.204;5.220;2023-05-29T21:15:24;98490.19;;;23.54;40.32
48874;BME280;66155;46.204;5.220;2023-05-29T21:20:25;98507.97;;;23.38;40.76
48874;BME280;66155;46.204;5.220;2023-05-29T21:25:25;98512.41;;;23.22;40.83
48874;BME280;66155;46.204;5.220;2023-05-29T21:30:26;98513.63;;;23.24;41.08
48874;BME280;66155;46.204;5.220;2023-05-29T21:35:30;98514.09;;;23.14;41.62
48874;BME280;66155;46.204;5.220;2023-05-29T21:40:32;98518.75;;;23.05;42.03
48874;BME280;66155;46.204;5.220;2023-05-29T21:45:32;98513.72;;;23.03;42.13
48874;BME280;66155;46.204;5.220;2023-05-29T21:50:33;98508.84;;;22.81;43.22
48874;BME280;66155;46.204;5.220;2023-05-29T21:55:33;98521.81;;;22.70;43.74
48874;BME280;66155;46.204;5.220;2023-05-29T22:00:34;98513.50;;;22.59;43.80
48874;BME280;66155;46.204;5.220;2023-05-29T22:05:34;98510.94;;;22.50;44.05
48874;BME280;66155;46.204;5.220;2023-05-29T22:10:35;98511.25;;;22.49;44.10
48874;BME280;66155;46.204;5.220;2023-05-29T22:15:35;98513.81;;;22.45;44.54
48874;BME280;66155;46.204;5.220;2023-05-29T22:20:36;98516.41;;;22.33;44.52
48874;BME280;66155;46.204;5.220;2023-05-29T22:25:36;98509.63;;;22.23;44.93
48874;BME280;66155;46.204;5.220;2023-05-29T22:30:36;98519.88;;;22.12;45.33
48874;BME280;66155;46.204;5.220;2023-05-29T22:35:37;98513.66;;;22.08;45.22
48874;BME280;66155;46.204;5.220;2023-05-29T22:40:37;98515.22;;;22.09;45.06
48874;BME280;66155;46.204;5.220;2023-05-29T22:45:38;98516.66;;;22.07;45.36
48874;BME280;66155;46.204;5.220;2023-05-29T22:50:38;98521.19;;;22.06;45.31
48874;BME280;66155;46.204;5.220;2023-05-29T22:55:39;98518.97;;;21.96;45.52
48874;BME280;66155;46.204;5.220;2023-05-29T23:00:40;98518.47;;;21.94;45.69
48874;BME280;66155;46.204;5.220;2023-05-29T23:05:41;98514.94;;;21.90;45.87
48874;BME280;66155;46.204;5.220;2023-05-29T23:10:42;98518.91;;;21.83;45.95
48874;BME280;66155;46.204;5.220;2023-05-29T23:15:43;98510.94;;;21.83;46.01
48874;BME280;66155;46.204;5.220;2023-05-29T23:20:44;98521.31;;;21.76;46.26
48874;BME280;66155;46.204;5.220;2023-05-29T23:25:45;98522.72;;;21.74;46.63
48874;BME280;66155;46.204;5.220;2023-05-29T23:30:46;98523.88;;;21.64;46.65
48874;BME280;66155;46.204;5.220;2023-05-29T23:35:47;98529.56;;;21.54;46.90
48874;BME280;66155;46.204;5.220;2023-05-29T23:40:47;98531.84;;;21.34;47.47
48874;BME280;66155;46.204;5.220;2023-05-29T23:45:48;98536.31;;;21.42;47.25
48874;BME280;66155;46.204;5.220;2023-05-29T23:50:48;98536.97;;;21.39;47.55
48874;BME280;66155;46.204;5.220;2023-05-29T23:55:49;98539.03;;;21.34;47.90
